Time;durP1;ratioP1;P1;durP2;ratioP2;P2;SDS_P1;SDS_P2;PMS_P1;PMS_P2;Temp;Humidity;BMP_temperature;BMP_pressure;BME280_temperature;BME280_humidity;BME280_pressure;Samples;Min_cycle;Max_cycle;Signal;HPM_P1;HPM_P2
2023/05/09 00:00:12;;;;;;;11.15;5.65;;;;;;;13.45;81.39;101276.28;5085076;28;20044;-82
2023/05/09 00:02:38;;;;;;;12.23;6.10;;;;;;;13.51;81.01;101280.31;5083587;28;20039;-81
2023/05/09 00:05:06;;;;;;;11.25;5.00;;;;;;;13.44;80.31;101276.41;5074809;28;20502;-81
2023/05/09 00:07:32;;;;;;;8.30;5.22;;;;;;;13.48;80.32;101267.91;5075559;28;20055;-81
2023/05/09 00:09:59;;;;;;;9.23;5.15;;;;;;;13.46;79.75;101250.97;5075624;28;20051;-81
2023/05/09 00:12:25;;;;;;;13.10;5.60;;;;;;;13.58;80.10;101259.88;5075244;28;20039;-82
2023/05/09 00:14:53;;;;;;;8.55;5.40;;;;;;;13.54;79.93;101258.44;5075551;28;20029;-80
2023/05/09 00:17:21;;;;;;;10.15;5.07;;;;;;;13.39;79.34;101246.22;5081620;28;20032;-80
2023/05/09 00:19:47;;;;;;;17.05;6.13;;;;;;;13.41;78.82;101246.94;5074785;28;20025;-81
2023/05/09 00:22:13;;;;;;;13.32;5.88;;;;;;;13.52;78.89;101260.38;5075072;28;20028;-81
2023/05/09 00:24:38;;;;;;;7.50;5.50;;;;;;;13.53;78.40;101275.63;5074887;28;20097;-81
2023/05/09 00:27:04;;;;;;;12.23;5.28;;;;;;;13.52;78.16;101282.00;5074698;28;20028;-81
2023/05/09 00:29:29;;;;;;;10.52;6.32;;;;;;;13.53;78.29;101278.34;5074294;28;20051;-82
2023/05/09 00:31:55;;;;;;;11.48;6.25;;;;;;;13.35;78.39;101236.63;5074989;28;20111;-81
2023/05/09 00:34:21;;;;;;;16.73;6.50;;;;;;;13.46;79.16;101256.34;5074707;28;20476;-81
2023/05/09 00:36:46;;;;;;;9.50;5.38;;;;;;;13.52;78.55;101265.78;5074125;28;20024;-80
2023/05/09 00:39:12;;;;;;;20.55;6.10;;;;;;;13.55;77.67;101255.59;5078656;28;20020;-81
2023/05/09 00:41:37;;;;;;;14.45;6.18;;;;;;;13.59;77.63;101269.72;5074727;28;20032;-82
2023/05/09 00:44:03;;;;;;;13.05;6.55;;;;;;;13.51;76.72;101269.50;5074109;28;20436;-81
2023/05/09 00:46:29;;;;;;;11.57;5.25;;;;;;;13.43;77.43;101250.34;5073918;28;20040;-81
2023/05/09 00:48:54;;;;;;;9.75;5.97;;;;;;;13.62;77.35;101272.16;5073644;28;20033;-80
2023/05/09 00:51:21;;;;;;;8.63;6.25;;;;;;;13.63;77.24;101271.19;5074787;28;20137;-81
2023/05/09 00:53:47;;;;;;;20.17;6.35;;;;;;;13.62;77.39;101262.22;5073766;28;20507;-82
2023/05/09 00:56:13;;;;;;;9.80;6.40;;;;;;;13.73;77.36;101276.69;5078308;28;20024;-83
2023/05/09 00:58:39;;;;;;;16.73;6.47;;;;;;;13.79;76.83;101281.56;5080686;28;20028;-81
2023/05/09 01:01:05;;;;;;;11.35;6.40;;;;;;;13.72;76.86;101289.31;5077778;28;20063;-83
2023/05/09 01:03:31;;;;;;;8.75;6.57;;;;;;;13.74;77.54;101314.38;5073739;28;20025;-82
2023/05/09 01:06:19;;;;;;;15.80;6.70;;;;;;;13.38;78.13;101260.69;5073396;28;20032;-81
2023/05/09 01:09:03;;;;;;;18.52;7.03;;;;;;;13.67;78.50;101313.16;5050378;28;20502;-81
2023/05/09 01:11:33;;;;;;;25.77;8.07;;;;;;;13.39;77.98;101276.75;5033877;28;20500;-83
2023/05/09 01:14:10;;;;;;;13.05;6.90;;;;;;;13.47;78.44;101290.53;5050401;28;20033;-81
2023/05/09 01:17:15;;;;;;;14.82;6.70;;;;;;;13.58;78.63;101308.53;5050659;28;20124;-81
2023/05/09 01:19:49;;;;;;;9.60;5.78;;;;;;;13.47;77.30;101312.13;4971701;28;20359;-83
2023/05/09 01:22:17;;;;;;;10.20;4.88;;;;;;;13.15;76.68;101272.56;4972256;28;20049;-82
2023/05/09 01:25:12;;;;;;;8.93;5.53;;;;;;;13.19;76.84;101301.00;4971915;28;20118;-81
2023/05/09 01:28:04;;;;;;;13.25;5.45;;;;;;;13.08;75.80;101308.16;4971935;28;20491;-82
2023/05/09 01:30:33;;;;;;;8.38;5.63;;;;;;;12.91;75.89;101295.09;4971830;28;20043;-82
2023/05/09 01:33:05;;;;;;;9.55;6.00;;;;;;;12.83;76.33;101289.47;4972183;28;20038;-81
2023/05/09 01:35:32;;;;;;;20.23;6.57;;;;;;;12.74;76.24;101281.25;4972798;28;20086;-81
2023/05/09 01:37:58;;;;;;;10.43;6.03;;;;;;;12.71;76.50;101268.00;4954802;28;20563;-83
2023/05/09 01:40:28;;;;;;;17.10;6.40;;;;;;;12.70;76.69;101277.94;4952867;29;20170;-82
2023/05/09 01:43:02;;;;;;;9.57;6.93;;;;;;;12.67;76.89;101251.19;4937579;29;20070;-83
2023/05/09 01:45:28;;;;;;;19.60;7.28;;;;;;;13.00;75.92;101290.81;4943802;28;20035;-83
2023/05/09 01:47:56;;;;;;;18.23;6.63;;;;;;;13.00;76.16;101302.47;4972483;28;20051;-83
2023/05/09 01:50:22;;;;;;;11.98;6.78;;;;;;;12.86;76.65;101278.44;4971826;28;20490;-81
2023/05/09 01:52:52;;;;;;;16.92;7.30;;;;;;;12.72;76.09;101253.53;4975845;28;20035;-84
2023/05/09 01:55:20;;;;;;;10.73;6.65;;;;;;;12.78;76.28;101283.56;5028060;28;20037;-82
2023/05/09 01:57:46;;;;;;;14.27;7.25;;;;;;;12.79;76.92;101288.00;5061533;28;20021;-85
2023/05/09 02:00:13;;;;;;;12.98;6.97;;;;;;;12.55;77.35;101258.44;5052387;28;20063;-84
2023/05/09 02:02:40;;;;;;;17.48;8.05;;;;;;;12.49;77.36;101247.25;5057938;28;20028;-82
2023/05/09 02:05:08;;;;;;;9.63;6.47;;;;;;;12.64;77.67;101269.47;5072122;28;20024;-83
2023/05/09 02:07:35;;;;;;;18.33;7.65;;;;;;;12.77;77.50;101302.59;5072759;28;20028;-81
2023/05/09 02:10:01;;;;;;;13.02;7.28;;;;;;;12.68;77.72;101284.44;5072907;28;20471;-81
2023/05/09 02:12:27;;;;;;;15.05;7.80;;;;;;;12.45;78.54;101262.84;5071554;28;20085;-85
2023/05/09 02:14:53;;;;;;;12.90;8.18;;;;;;;12.70;78.78;101299.53;5071960;28;20100;-83
2023/05/09 02:17:20;;;;;;;12.65;7.28;;;;;;;12.73;78.15;101295.72;5070195;28;20118;-80
2023/05/09 02:19:45;;;;;;;16.77;7.80;;;;;;;12.67;78.68;101280.00;5070748;28;20170;-81
2023/05/09 02:22:12;;;;;;;13.40;8.20;;;;;;;12.70;78.74;101299.53;5070100;28;20111;-85
2023/05/09 02:24:38;;;;;;;14.60;8.18;;;;;;;12.45;78.69;101268.22;5070277;28;20028;-82
2023/05/09 02:27:06;;;;;;;13.68;8.48;;;;;;;12.67;79.01;101304.31;5070206;28;20502;-81
2023/05/09 02:29:42;;;;;;;14.30;7.75;;;;;;;12.60;78.88;101297.69;5070164;28;20027;-83
2023/05/09 02:32:11;;;;;;;18.42;8.20;;;;;;;12.56;79.45;101291.69;5071362;28;20048;-81
2023/05/09 02:34:38;;;;;;;19.65;7.93;;;;;;;12.65;79.93;101298.19;5073232;28;20085;-81
2023/05/09 02:37:04;;;;;;;15.35;8.38;;;;;;;12.66;79.52;101308.84;5073153;28;20036;-81
2023/05/09 02:39:30;;;;;;;14.05;8.65;;;;;;;12.58;79.26;101300.50;5075516;28;20033;-80
2023/05/09 02:42:00;;;;;;;17.17;8.77;;;;;;;12.53;80.12;101310.81;5079331;28;20037;-81
2023/05/09 02:44:26;;;;;;;23.67;9.02;;;;;;;12.51;80.37;101313.63;5079542;28;20032;-82
2023/05/09 02:46:51;;;;;;;17.55;7.60;;;;;;;12.45;80.97;101319.50;5072404;28;20028;-81
2023/05/09 02:49:16;;;;;;;15.90;9.65;;;;;;;12.28;80.79;101290.28;5073183;28;20024;-81
2023/05/09 02:51:42;;;;;;;14.52;8.82;;;;;;;12.40;81.40;101310.03;5084078;28;20177;-81
2023/05/09 02:54:07;;;;;;;16.77;8.98;;;;;;;12.27;82.10;101298.47;5083374;28;20020;-83
2023/05/09 02:56:33;;;;;;;14.00;9.85;;;;;;;12.20;81.86;101290.00;5073776;28;20138;-81
2023/05/09 02:58:58;;;;;;;14.05;9.80;;;;;;;12.28;82.01;101305.59;5072408;28;20025;-82
2023/05/09 03:01:24;;;;;;;17.15;10.02;;;;;;;12.30;81.75;101307.19;5077054;28;20039;-80
2023/05/09 03:03:49;;;;;;;19.58;9.98;;;;;;;12.34;81.93;101303.28;5071224;28;20029;-82
2023/05/09 03:06:14;;;;;;;16.20;9.95;;;;;;;12.27;81.52;101296.66;5070475;28;20062;-81
2023/05/09 03:08:40;;;;;;;23.40;9.32;;;;;;;12.34;82.03;101311.38;5069534;28;20027;-81
2023/05/09 03:11:06;;;;;;;18.10;9.60;;;;;;;12.23;82.11;101299.72;5069671;28;20036;-81
2023/05/09 03:13:31;;;;;;;23.40;10.60;;;;;;;12.21;82.44;101301.66;5068880;28;20094;-82
2023/05/09 03:15:57;;;;;;;20.65;9.50;;;;;;;12.30;82.88;101317.13;5070851;28;20032;-81
2023/05/09 03:18:22;;;;;;;17.38;9.10;;;;;;;12.33;82.26;101330.38;5070229;28;20107;-82
2023/05/09 03:20:48;;;;;;;15.95;10.63;;;;;;;12.32;82.13;101320.59;5070361;28;20458;-82
2023/05/09 03:23:13;;;;;;;16.13;9.50;;;;;;;12.13;82.57;101304.97;5070219;28;20028;-82
2023/05/09 03:25:38;;;;;;;22.02;10.23;;;;;;;12.18;83.34;101328.84;5069494;28;20529;-81
2023/05/09 03:28:04;;;;;;;23.40;10.60;;;;;;;12.23;82.94;101332.91;5069782;28;20047;-82
2023/05/09 03:30:29;;;;;;;21.85;9.55;;;;;;;12.26;82.73;101326.44;5069244;28;20495;-81
2023/05/09 03:32:55;;;;;;;22.75;9.32;;;;;;;12.20;82.61;101314.28;5049902;28;20415;-83
2023/05/09 03:35:20;;;;;;;21.20;9.63;;;;;;;12.25;82.75;101325.59;5070103;28;20039;-86
2023/05/09 03:37:46;;;;;;;24.92;9.90;;;;;;;12.28;83.10;101325.34;5069031;28;20056;-81
2023/05/09 03:40:11;;;;;;;18.02;10.65;;;;;;;12.40;83.10;101326.22;5070846;28;20082;-82
2023/05/09 03:42:37;;;;;;;16.42;8.77;;;;;;;12.33;82.85;101323.16;5071598;28;20040;-80
2023/05/09 03:45:02;;;;;;;13.77;8.57;;;;;;;12.32;82.09;101318.72;5070738;28;20021;-81
2023/05/09 03:47:28;;;;;;;21.65;8.63;;;;;;;12.48;82.13;101339.97;5073246;28;20091;-86
2023/05/09 03:49:53;;;;;;;14.60;8.23;;;;;;;12.41;81.75;101327.97;5083822;28;20028;-83
2023/05/09 03:52:19;;;;;;;14.82;8.20;;;;;;;12.49;81.89;101342.56;5082096;28;20095;-82
2023/05/09 03:54:44;;;;;;;18.08;8.00;;;;;;;12.51;82.11;101323.53;5068049;28;20024;-82
2023/05/09 03:57:10;;;;;;;15.00;8.65;;;;;;;12.72;81.65;101346.13;5068855;28;20094;-82
2023/05/09 03:59:35;;;;;;;24.42;9.45;;;;;;;12.57;81.42;101349.22;5071650;28;20029;-83
2023/05/09 04:02:02;;;;;;;19.02;9.43;;;;;;;12.68;82.12;101360.88;5069855;28;20081;-79
2023/05/09 04:04:27;;;;;;;36.30;10.43;;;;;;;12.80;81.74;101357.22;5068193;28;20112;-82
2023/05/09 04:06:53;;;;;;;13.35;8.48;;;;;;;12.71;81.31;101339.03;5068025;28;20112;-78
2023/05/09 04:09:18;;;;;;;28.92;10.35;;;;;;;12.87;81.34;101360.28;5070695;28;20127;-80
2023/05/09 04:11:43;;;;;;;43.65;11.50;;;;;;;12.94;81.63;101354.25;5073453;28;20054;-80
2023/05/09 04:14:09;;;;;;;27.33;9.45;;;;;;;12.93;81.64;101362.50;5069133;28;20036;-82
2023/05/09 04:16:34;;;;;;;70.00;12.00;;;;;;;12.89;81.57;101364.59;5068510;28;20029;-79
2023/05/09 04:19:00;;;;;;;31.88;12.50;;;;;;;12.90;81.80;101360.88;5063071;28;20032;-82
2023/05/09 04:21:25;;;;;;;31.35;13.05;;;;;;;12.85;82.08;101362.22;5067785;28;20174;-81
2023/05/09 04:23:51;;;;;;;40.50;10.48;;;;;;;12.91;82.27;101373.41;5070004;28;20181;-81
2023/05/09 04:26:17;;;;;;;42.78;11.13;;;;;;;12.90;82.13;101363.56;5071748;28;20036;-86
2023/05/09 04:28:42;;;;;;;42.53;12.85;;;;;;;13.00;81.95;101375.38;5071556;28;20059;-84
2023/05/09 04:31:08;;;;;;;29.45;11.48;;;;;;;12.85;81.56;101381.13;5072269;28;20103;-84
2023/05/09 04:33:34;;;;;;;37.38;10.23;;;;;;;12.80;81.63;101354.50;5071170;28;20035;-83
2023/05/09 04:36:00;;;;;;;16.38;8.50;;;;;;;12.70;82.35;101369.69;5071404;28;20103;-87
2023/05/09 04:38:26;;;;;;;31.55;10.75;;;;;;;12.84;82.55;101371.34;5072468;28;20060;-81
2023/05/09 04:40:51;;;;;;;25.73;11.43;;;;;;;12.77;82.21;101345.78;5072504;28;20029;-83
2023/05/09 04:43:17;;;;;;;15.13;9.05;;;;;;;12.98;81.46;101380.06;5071634;28;20033;-80
2023/05/09 04:45:43;;;;;;;42.83;10.85;;;;;;;12.98;81.47;101363.84;5076587;28;20044;-82
2023/05/09 04:48:09;;;;;;;26.98;9.43;;;;;;;13.16;81.15;101377.75;5080486;28;20081;-86
2023/05/09 04:50:35;;;;;;;16.67;8.38;;;;;;;13.25;80.30;101381.53;5072918;28;20032;-83
2023/05/09 04:53:00;;;;;;;27.98;9.23;;;;;;;13.26;80.15;101376.03;5051624;28;20045;-80
2023/05/09 04:55:26;;;;;;;33.55;7.63;;;;;;;13.21;79.79;101375.53;5070975;28;20028;-81
2023/05/09 04:57:51;;;;;;;27.45;8.82;;;;;;;13.27;80.02;101376.91;5075100;28;20025;-81
2023/05/09 05:00:18;;;;;;;54.70;11.25;;;;;;;13.28;79.82;101367.78;5074182;28;20364;-83
2023/05/09 05:02:43;;;;;;;47.72;9.20;;;;;;;13.31;79.40;101373.81;5070385;28;20039;-82
2023/05/09 05:05:09;;;;;;;20.70;8.70;;;;;;;13.37;79.01;101369.75;5069944;28;20037;-81
2023/05/09 05:07:34;;;;;;;20.13;8.55;;;;;;;13.55;78.82;101379.91;5069822;28;20028;-82
2023/05/09 05:10:00;;;;;;;79.75;11.20;;;;;;;13.55;78.51;101369.09;5070951;28;20414;-82
2023/05/09 05:12:25;;;;;;;24.00;8.88;;;;;;;13.52;78.33;101379.31;5070449;28;20593;-83
2023/05/09 05:14:50;;;;;;;36.85;10.93;;;;;;;13.45;78.21;101359.19;5070063;28;20471;-81
2023/05/09 05:17:17;;;;;;;25.98;9.60;;;;;;;13.72;78.16;101383.09;5070442;28;20492;-83
2023/05/09 05:19:42;;;;;;;27.40;9.38;;;;;;;13.77;77.56;101383.56;5070355;28;20075;-83
2023/05/09 05:22:08;;;;;;;29.52;8.65;;;;;;;13.88;77.66;101397.91;5073579;28;20048;-82
2023/05/09 05:24:33;;;;;;;17.42;8.55;;;;;;;13.94;77.01;101386.56;5070641;28;20110;-85
2023/05/09 05:26:58;;;;;;;68.80;11.68;;;;;;;14.07;76.08;101387.28;5069848;28;20028;-82
2023/05/09 05:29:24;;;;;;;28.88;7.93;;;;;;;13.86;75.92;101356.63;5070807;28;20051;-84
2023/05/09 05:31:49;;;;;;;36.92;9.43;;;;;;;13.93;75.37;101365.94;5072004;28;20495;-82
2023/05/09 05:34:15;;;;;;;47.45;8.40;;;;;;;14.07;75.11;101391.81;5072131;28;20093;-79
2023/05/09 05:36:41;;;;;;;35.70;8.10;;;;;;;14.15;75.01;101401.03;5072224;28;20024;-79
2023/05/09 05:39:06;;;;;;;29.20;7.95;;;;;;;14.17;74.33;101393.63;5073291;28;20028;-80
2023/05/09 05:41:32;;;;;;;55.10;9.55;;;;;;;14.30;74.45;101401.56;5076872;28;20051;-80
2023/05/09 05:43:57;;;;;;;16.08;6.13;;;;;;;14.32;74.47;101386.06;5073994;28;20036;-83
2023/05/09 05:46:23;;;;;;;21.83;6.78;;;;;;;14.61;74.07;101397.16;5072621;28;20021;-86
2023/05/09 05:48:49;;;;;;;49.70;7.70;;;;;;;14.66;73.50;101374.09;5069328;28;20055;-81
2023/05/09 05:51:15;;;;;;;20.55;7.72;;;;;;;14.63;71.79;101351.84;5069329;28;20021;-87
2023/05/09 05:53:40;;;;;;;20.05;5.80;;;;;;;14.85;71.42;101405.00;5067818;28;20060;-79
2023/05/09 05:56:06;;;;;;;26.55;6.68;;;;;;;14.85;71.51;101400.44;5069741;28;20146;-83
2023/05/09 05:58:31;;;;;;;12.60;5.40;;;;;;;14.63;71.00;101370.78;5069515;28;20094;-80
2023/05/09 06:00:57;;;;;;;14.15;5.13;;;;;;;14.77;71.35;101392.09;5068031;28;20029;-83
2023/05/09 06:03:22;;;;;;;36.17;7.68;;;;;;;14.90;71.77;101390.06;5069232;28;20056;-81
2023/05/09 06:05:48;;;;;;;31.52;7.47;;;;;;;15.01;71.38;101390.00;5069258;28;20028;-82
2023/05/09 06:08:14;;;;;;;44.40;7.97;;;;;;;15.10;71.35;101400.03;5069212;28;20063;-81
2023/05/09 06:10:39;;;;;;;37.15;13.73;;;;;;;15.20;70.74;101394.63;5069051;28;20031;-81
2023/05/09 06:13:05;;;;;;;23.40;6.75;;;;;;;15.45;69.63;101412.28;5068436;28;20036;-81
2023/05/09 06:15:30;;;;;;;51.78;9.50;;;;;;;15.47;68.77;101408.47;5068698;28;20032;-80
2023/05/09 06:17:56;;;;;;;30.15;7.03;;;;;;;15.32;68.44;101398.13;5068572;28;20028;-82
2023/05/09 06:20:21;;;;;;;25.55;8.75;;;;;;;15.05;69.05;101404.97;5069073;28;20046;-80
2023/05/09 06:22:46;;;;;;;66.40;10.30;;;;;;;15.13;69.42;101399.75;5069076;28;20471;-81
2023/05/09 06:25:12;;;;;;;30.67;11.30;;;;;;;15.20;69.50;101402.75;5068576;28;20494;-81
2023/05/09 06:27:37;;;;;;;25.40;10.20;;;;;;;15.09;69.63;101392.88;5069171;28;20549;-81
2023/05/09 06:30:04;;;;;;;43.88;17.65;;;;;;;15.09;69.76;101398.28;5068895;28;20449;-82
2023/05/09 06:32:29;;;;;;;27.50;8.95;;;;;;;15.08;69.37;101399.28;5069688;28;20036;-80
2023/05/09 06:34:54;;;;;;;31.88;7.90;;;;;;;14.85;69.68;101407.69;5069137;28;20081;-82
2023/05/09 06:37:20;;;;;;;45.42;11.15;;;;;;;14.76;69.97;101405.78;5070527;28;20131;-82
2023/05/09 06:39:45;;;;;;;27.40;8.77;;;;;;;14.71;70.56;101417.88;5076905;28;20036;-83
2023/05/09 06:42:11;;;;;;;121.80;17.45;;;;;;;14.61;70.36;101413.41;5075442;28;20184;-79
2023/05/09 06:44:36;;;;;;;41.25;14.38;;;;;;;14.58;70.41;101413.66;5067923;28;20113;-81
2023/05/09 06:47:02;;;;;;;25.20;10.25;;;;;;;14.63;70.98;101408.69;5068688;28;20041;-80
2023/05/09 06:49:27;;;;;;;29.58;10.80;;;;;;;14.70;70.95;101418.03;5068868;28;20024;-80
2023/05/09 06:51:53;;;;;;;31.58;10.02;;;;;;;14.70;70.72;101408.06;5069196;28;20063;-80
2023/05/09 06:54:18;;;;;;;15.27;7.43;;;;;;;14.85;70.20;101413.13;5073436;28;20033;-80
2023/05/09 06:56:44;;;;;;;26.00;12.48;;;;;;;14.91;69.87;101402.63;5069466;28;20025;-80
2023/05/09 06:59:15;;;;;;;48.45;17.38;;;;;;;15.20;69.74;101409.03;5069647;28;20399;-80
2023/05/09 07:01:40;;;;;;;67.97;12.98;;;;;;;15.32;68.90;101400.81;5072491;28;20559;-79
2023/05/09 07:04:05;;;;;;;37.65;12.38;;;;;;;15.48;67.60;101398.47;5072730;28;20027;-77
2023/05/09 07:06:31;;;;;;;24.10;9.40;;;;;;;15.71;66.40;101400.00;5072613;28;20116;-80
2023/05/09 07:08:57;;;;;;;23.52;9.20;;;;;;;15.83;65.98;101407.00;5069606;28;20107;-81
2023/05/09 07:11:22;;;;;;;55.40;15.00;;;;;;;16.00;65.57;101405.44;5069650;28;20048;-80
2023/05/09 07:13:48;;;;;;;24.38;8.88;;;;;;;15.98;65.04;101396.59;5069675;28;20027;-80
2023/05/09 07:16:13;;;;;;;18.38;8.63;;;;;;;15.93;64.41;101402.44;5069944;28;20575;-80
2023/05/09 07:18:39;;;;;;;25.63;8.25;;;;;;;15.94;64.63;101400.59;5070094;28;20023;-81
2023/05/09 07:21:05;;;;;;;30.52;10.07;;;;;;;15.87;65.29;101407.59;5073032;28;20040;-79
2023/05/09 07:23:30;;;;;;;20.33;9.30;;;;;;;15.81;65.00;101406.28;5070280;28;20120;-82
2023/05/09 07:26:00;;;;;;;24.55;10.63;;;;;;;15.68;65.32;101411.97;5069276;28;20025;-82
2023/05/09 07:28:26;;;;;;;33.92;12.88;;;;;;;15.64;64.59;101412.38;5069531;28;20028;-79
2023/05/09 07:30:53;;;;;;;54.22;17.55;;;;;;;15.57;64.92;101414.78;5070170;28;20029;-82
2023/05/09 07:33:19;;;;;;;38.40;10.32;;;;;;;15.41;65.45;101421.69;5069017;28;20150;-79
2023/05/09 07:35:44;;;;;;;33.45;13.77;;;;;;;15.20;66.10;101411.75;5075851;28;20055;-82
2023/05/09 07:38:10;;;;;;;16.77;9.00;;;;;;;15.05;66.74;101414.94;5074704;28;20095;-81
2023/05/09 07:40:37;;;;;;;38.08;9.15;;;;;;;15.01;67.39;101414.38;5069322;28;20032;-81
2023/05/09 07:43:05;;;;;;;91.20;22.90;;;;;;;15.04;67.89;101427.66;5071776;28;20398;-82
2023/05/09 07:45:31;;;;;;;38.70;12.63;;;;;;;15.06;68.16;101420.25;5068831;28;20041;-83
2023/05/09 07:47:56;;;;;;;77.43;20.73;;;;;;;15.20;68.01;101422.59;5069027;28;20036;-79
2023/05/09 07:50:22;;;;;;;45.97;14.90;;;;;;;15.09;67.29;101397.44;5067283;28;20020;-80
2023/05/09 07:52:48;;;;;;;45.33;15.95;;;;;;;15.20;66.73;101422.59;5069147;28;20028;-80
2023/05/09 07:55:13;;;;;;;28.88;8.80;;;;;;;15.21;66.18;101421.59;5068707;28;20056;-81
2023/05/09 07:57:39;;;;;;;15.15;7.53;;;;;;;15.13;66.98;101418.72;5072026;28;20020;-82
2023/05/09 08:00:05;;;;;;;24.20;6.82;;;;;;;15.18;66.87;101413.75;5072920;28;20733;-80
2023/05/09 08:02:31;;;;;;;25.63;6.30;;;;;;;15.43;65.74;101434.13;5070940;28;20039;-83
2023/05/09 08:04:56;;;;;;;51.75;8.38;;;;;;;15.40;65.94;101441.66;5072194;28;20021;-80
2023/05/09 08:07:22;;;;;;;29.80;5.55;;;;;;;15.26;66.18;101424.75;5072213;28;20025;-82
2023/05/09 08:09:47;;;;;;;23.67;7.07;;;;;;;15.54;65.84;101425.03;5072675;28;20028;-81
2023/05/09 08:12:13;;;;;;;31.92;7.65;;;;;;;15.58;64.35;101424.66;5072135;28;20052;-81
2023/05/09 08:14:38;;;;;;;31.33;6.18;;;;;;;15.72;64.51;101398.97;5071957;28;20083;-81
2023/05/09 08:17:03;;;;;;;29.25;5.82;;;;;;;16.16;63.61;101425.63;5072132;28;20031;-80
2023/05/09 08:19:29;;;;;;;11.57;4.78;;;;;;;16.28;62.28;101423.63;5072219;28;20029;-81
2023/05/09 08:21:54;;;;;;;34.00;7.47;;;;;;;16.32;61.84;101423.22;5072629;28;20028;-80
2023/05/09 08:24:20;;;;;;;43.08;7.13;;;;;;;16.33;61.84;101418.63;5072084;28;20020;-82
2023/05/09 08:26:46;;;;;;;25.35;4.95;;;;;;;16.24;61.69;101414.03;5070921;28;20028;-79
2023/05/09 08:29:11;;;;;;;32.63;4.53;;;;;;;16.16;61.22;101417.47;5071964;28;20038;-82
2023/05/09 08:31:36;;;;;;;14.55;6.03;;;;;;;16.08;61.94;101419.19;5075694;28;20025;-80
2023/05/09 08:34:02;;;;;;;29.65;7.32;;;;;;;16.08;62.24;101422.78;5079298;28;20021;-82
2023/05/09 08:36:27;;;;;;;16.52;5.00;;;;;;;16.06;62.28;101432.88;5075456;28;20028;-80
2023/05/09 08:38:53;;;;;;;22.58;5.75;;;;;;;15.96;62.62;101414.91;5072181;28;20049;-83
2023/05/09 08:41:27;;;;;;;18.63;5.72;;;;;;;16.10;63.47;101422.63;5071803;28;20027;-80
2023/05/09 08:43:53;;;;;;;23.92;4.53;;;;;;;16.20;62.02;101424.34;5071339;28;20117;-80
2023/05/09 08:46:26;;;;;;;22.10;5.30;;;;;;;16.37;62.01;101413.75;5071551;28;20883;-79
2023/05/09 08:48:53;;;;;;;16.35;5.38;;;;;;;16.64;60.89;101411.22;5071340;28;20118;-79
2023/05/09 08:51:19;;;;;;;26.52;5.78;;;;;;;16.69;60.35;101409.81;5071315;28;20024;-80
2023/05/09 08:53:44;;;;;;;33.70;6.90;;;;;;;16.82;59.66;101412.19;5071592;28;20460;-81
2023/05/09 08:56:10;;;;;;;38.83;4.93;;;;;;;16.90;58.17;101417.75;5072467;28;20035;-81
2023/05/09 08:58:37;;;;;;;40.55;7.45;;;;;;;16.98;57.67;101408.84;5072545;28;20037;-84
2023/05/09 09:01:06;;;;;;;25.02;4.38;;;;;;;17.07;57.17;101405.25;5072795;28;20454;-81
2023/05/09 09:03:32;;;;;;;44.35;14.27;;;;;;;17.22;56.70;101401.06;5071903;28;20035;-81
2023/05/09 09:05:58;;;;;;;59.05;7.88;;;;;;;17.43;56.37;101388.94;5072272;28;20029;-82
2023/05/09 09:08:25;;;;;;;14.07;4.53;;;;;;;17.34;56.55;101381.69;5070905;28;20674;-82
2023/05/09 09:10:52;;;;;;;48.53;8.15;;;;;;;17.57;56.97;101386.78;5070543;28;20450;-81
2023/05/09 09:13:19;;;;;;;17.40;4.13;;;;;;;17.78;57.38;101390.09;5070585;28;20044;-81
2023/05/09 09:15:47;;;;;;;37.90;5.95;;;;;;;17.66;57.23;101388.59;5070786;28;20033;-85
2023/05/09 09:18:19;;;;;;;39.50;6.70;;;;;;;17.71;57.27;101380.81;5070749;28;20094;-81
2023/05/09 09:20:56;;;;;;;22.92;4.68;;;;;;;17.48;56.33;101385.78;5070601;28;20024;-78
2023/05/09 09:23:25;;;;;;;59.05;9.15;;;;;;;17.54;57.04;101384.31;5072798;28;20054;-83
2023/05/09 09:25:57;;;;;;;44.47;7.68;;;;;;;17.24;58.75;101380.03;5071652;28;20040;-79
2023/05/09 09:28:23;;;;;;;19.60;6.38;;;;;;;16.98;60.09;101377.09;5070857;28;20543;-78
2023/05/09 09:30:48;;;;;;;54.10;8.32;;;;;;;17.02;60.38;101383.97;5072333;28;20104;-80
2023/05/09 09:33:21;;;;;;;29.38;5.95;;;;;;;16.87;60.87;101380.00;5070244;28;20035;-82
2023/05/09 09:35:51;;;;;;;20.17;5.38;;;;;;;16.49;62.22;101390.91;5069413;28;20127;-81
2023/05/09 09:38:20;;;;;;;17.40;6.88;;;;;;;16.15;62.99;101388.63;5069296;28;20063;-79
2023/05/09 09:40:56;;;;;;;16.60;6.00;;;;;;;16.15;63.70;101404.91;5069283;28;20029;-79
2023/05/09 09:43:31;;;;;;;26.70;5.97;;;;;;;16.01;64.26;101394.47;5069936;28;20044;-81
2023/05/09 09:46:00;;;;;;;31.42;6.65;;;;;;;16.14;64.44;101394.22;5068840;28;20024;-78
2023/05/09 09:48:29;;;;;;;20.10;6.40;;;;;;;16.14;64.11;101396.91;5067711;28;20032;-79
2023/05/09 09:50:58;;;;;;;22.63;5.70;;;;;;;15.95;63.50;101384.19;5069070;28;20024;-78
2023/05/09 09:53:29;;;;;;;30.75;5.78;;;;;;;15.81;63.54;101390.00;5069048;28;20389;-78
2023/05/09 09:55:54;;;;;;;25.20;6.97;;;;;;;15.67;64.66;101393.13;5069514;28;20032;-79
2023/05/09 09:58:25;;;;;;;28.40;7.30;;;;;;;15.78;64.49;101406.56;5069107;28;20032;-79
2023/05/09 10:01:23;;;;;;;21.45;7.00;;;;;;;15.76;64.72;101403.13;5068977;28;20047;-80
2023/05/09 10:03:49;;;;;;;27.52;7.00;;;;;;;15.77;64.81;101418.41;5046025;28;20041;-79
2023/05/09 10:06:15;;;;;;;45.88;7.03;;;;;;;15.58;65.60;101423.78;5029529;28;20021;-81
2023/05/09 10:08:43;;;;;;;29.52;6.03;;;;;;;15.52;64.59;101427.91;5046448;28;20032;-79
2023/05/09 10:11:09;;;;;;;34.70;5.95;;;;;;;15.59;64.11;101423.66;5045969;28;20025;-81
2023/05/09 10:13:35;;;;;;;33.47;6.03;;;;;;;15.64;63.24;101421.38;5046131;28;20139;-82
2023/05/09 10:16:02;;;;;;;19.20;4.80;;;;;;;15.58;61.19;101415.66;5045697;28;20101;-79
2023/05/09 10:18:29;;;;;;;17.23;4.43;;;;;;;15.81;59.55;101421.72;5046445;28;20029;-79
2023/05/09 10:21:02;;;;;;;20.27;4.32;;;;;;;15.85;59.68;101423.13;5045908;28;20094;-78
2023/05/09 10:23:28;;;;;;;;;;;;;;;15.95;59.86;101435.75;5047241;28;20171;-79
2023/05/09 10:26:17;;;;;;;22.80;5.30;;;;;;;15.88;60.13;101423.72;5047609;28;19948;-80
2023/05/09 10:28:44;;;;;;;16.88;4.43;;;;;;;15.98;59.43;101408.31;5047990;28;20079;-81
2023/05/09 10:31:28;;;;;;;39.08;6.22;;;;;;;16.14;60.20;101416.78;5046638;28;20036;-81
2023/05/09 10:33:57;;;;;;;23.52;5.15;;;;;;;16.18;59.56;101418.19;5046660;28;20420;-79
2023/05/09 10:36:23;;;;;;;17.80;5.32;;;;;;;16.10;59.64;101420.75;5046643;28;20506;-79
2023/05/09 10:38:52;;;;;;;33.20;5.38;;;;;;;16.37;59.26;101428.22;5051725;28;20040;-79
2023/05/09 10:41:20;;;;;;;15.80;4.03;;;;;;;16.39;59.20;101430.78;5069229;28;20036;-78
2023/05/09 10:43:46;;;;;;;9.48;4.05;;;;;;;16.54;59.51;101426.66;5068968;28;20555;-79
2023/05/09 10:46:12;;;;;;;45.28;6.30;;;;;;;16.57;59.87;101421.81;5069068;28;20029;-80
2023/05/09 10:48:40;;;;;;;146.75;16.38;;;;;;;16.59;59.73;101417.09;5069132;28;20189;-79
2023/05/09 10:51:07;;;;;;;19.35;4.57;;;;;;;16.84;59.52;101411.06;5067435;28;20029;-80
2023/05/09 10:53:50;;;;;;;24.20;4.95;;;;;;;16.73;59.21;101413.06;5069147;28;20403;-78
2023/05/09 10:56:29;;;;;;;73.90;7.72;;;;;;;16.61;60.55;101406.94;5069377;28;20135;-83
2023/05/09 10:58:55;;;;;;;26.50;5.65;;;;;;;16.60;61.46;101394.38;5069471;28;20028;-80
2023/05/09 11:01:37;;;;;;;43.33;6.72;;;;;;;16.28;65.11;101407.34;5069181;28;20031;-80
2023/05/09 11:04:09;;;;;;;106.50;13.13;;;;;;;16.09;66.71;101416.31;5047955;28;20091;-80
2023/05/09 11:06:42;;;;;;;59.47;8.20;;;;;;;15.82;67.50;101401.72;5049607;28;20031;-82
2023/05/09 11:09:25;;;;;;;;;;;;;;;15.84;68.81;101411.41;5049260;28;20032;-80
2023/05/09 11:11:51;;;;;;;16.73;5.75;;;;;;;15.87;69.08;101418.44;5059989;28;20016;-82
2023/05/09 11:14:45;;;;;;;47.38;6.88;;;;;;;15.93;68.44;101415.16;5071857;28;20578;-80
2023/05/09 11:17:12;;;;;;;35.53;7.30;;;;;;;15.83;68.80;101423.28;5068908;28;20031;-86